createdAt,value
2019-01-17T00:02:12.176Z,74.40
2019-01-17T00:05:01.417Z,72.70
2019-01-17T00:07:48.259Z,73.00
2019-01-17T00:10:42.304Z,72.60
2019-01-17T00:13:47.219Z,71.80
2019-01-17T00:16:40.110Z,73.30
2019-01-17T00:19:25.607Z,73.40
2019-01-17T00:22:07.730Z,72.10
2019-01-17T00:24:49.994Z,73.40
2019-01-17T00:27:34.262Z,73.50
2019-01-17T00:30:21.089Z,73.60
2019-01-17T00:32:57.339Z,70.90
2019-01-17T00:35:53.497Z,73.60
2019-01-17T00:38:38.237Z,72.80
2019-01-17T00:41:32.913Z,73.00
2019-01-17T00:44:18.523Z,73.50
2019-01-17T00:46:57.222Z,72.10
2019-01-17T00:49:59.175Z,71.70
2019-01-17T00:53:03.933Z,72.70
2019-01-17T00:56:00.116Z,72.80
2019-01-17T00:58:49.841Z,72.60
2019-01-17T01:01:31.384Z,72.90
2019-01-17T01:04:06.123Z,71.10
2019-01-17T01:06:47.499Z,73.00
2019-01-17T01:09:31.679Z,74.80
2019-01-17T01:12:17.277Z,73.00
2019-01-17T01:15:03.083Z,71.60
2019-01-17T01:17:39.194Z,71.50
2019-01-17T01:20:31.317Z,72.80
2019-01-17T01:23:23.944Z,72.60
2019-01-17T01:26:16.981Z,72.40
2019-01-17T01:29:13.021Z,72.80
2019-01-17T01:31:53.205Z,74.70
2019-01-17T01:34:43.053Z,75.10
2019-01-17T01:37:48.530Z,74.70
2019-01-17T01:40:28.985Z,74.40
2019-01-17T01:43:21.807Z,73.60
2019-01-17T01:46:11.619Z,74.60
2019-01-17T01:49:04.456Z,74.90
2019-01-17T01:51:49.809Z,76.00
2019-01-17T01:54:21.983Z,76.40
2019-01-17T01:56:46.428Z,75.60
2019-01-17T01:59:13.841Z,73.50
2019-01-17T02:01:41.214Z,74.30
2019-01-17T02:04:08.553Z,74.20
2019-01-17T02:06:35.837Z,74.50
2019-01-17T02:09:06.726Z,74.00
2019-01-17T02:11:34.018Z,73.30
2019-01-17T02:14:01.411Z,74.40
2019-01-17T02:16:28.768Z,73.10
2019-01-17T02:18:56.155Z,74.10
2019-01-17T02:21:23.466Z,73.80
2019-01-17T02:23:51.146Z,74.00
2019-01-17T02:26:18.502Z,73.70
2019-01-17T02:28:45.913Z,72.60
2019-01-17T02:31:13.305Z,73.70
2019-01-17T02:33:40.688Z,74.20
2019-01-17T02:36:08.254Z,75.70
2019-01-17T02:38:35.552Z,74.30
2019-01-17T02:41:02.884Z,73.50
2019-01-17T02:43:30.207Z,73.40
2019-01-17T02:45:57.621Z,74.00
2019-01-17T02:48:25.039Z,74.20
2019-01-17T02:50:52.344Z,73.90
2019-01-17T02:53:19.662Z,75.00
2019-01-17T02:55:47.065Z,75.00
2019-01-17T02:58:14.445Z,74.80
2019-01-17T03:00:41.878Z,75.30
2019-01-17T03:03:09.264Z,75.90
2019-01-17T03:05:36.683Z,76.40
2019-01-17T03:08:04.172Z,75.20
2019-01-17T03:10:31.606Z,74.00
2019-01-17T03:12:58.903Z,74.20
2019-01-17T03:15:26.326Z,73.10
2019-01-17T03:17:53.716Z,72.50
2019-01-17T03:20:21.093Z,73.00
2019-01-17T03:22:48.468Z,73.50
2019-01-17T03:25:15.775Z,74.40
2019-01-17T03:27:43.115Z,75.20
2019-01-17T03:30:13.443Z,74.30
2019-01-17T03:32:40.879Z,75.30
2019-01-17T03:35:08.297Z,73.50
2019-01-17T03:37:35.711Z,74.20
2019-01-17T03:40:04.510Z,75.40
2019-01-17T03:42:31.816Z,74.30
2019-01-17T03:44:59.415Z,75.50
2019-01-17T03:47:26.831Z,75.90
2019-01-17T03:49:54.225Z,75.50
2019-01-17T03:52:22.094Z,75.30
2019-01-17T03:54:51.882Z,75.10
2019-01-17T03:57:18.736Z,75.40
2019-01-17T03:59:46.034Z,74.10
2019-01-17T04:02:13.400Z,75.20
2019-01-17T04:04:40.680Z,74.90
2019-01-17T04:07:07.985Z,74.80
2019-01-17T04:09:35.384Z,74.90
2019-01-17T04:12:02.799Z,75.20
2019-01-17T04:14:30.194Z,75.60
2019-01-17T04:16:57.598Z,75.30
2019-01-17T04:19:24.992Z,75.60
2019-01-17T04:21:52.300Z,75.00
2019-01-17T04:24:19.714Z,74.60
2019-01-17T04:26:47.044Z,73.90
2019-01-17T04:29:14.416Z,74.00
2019-01-17T04:31:41.809Z,72.50
2019-01-17T04:34:09.515Z,74.80
2019-01-17T04:36:36.891Z,73.90
2019-01-17T04:39:06.577Z,75.00
2019-01-17T04:41:33.987Z,73.50
2019-01-17T04:44:01.379Z,74.70
2019-01-17T04:46:28.789Z,75.30
2019-01-17T04:48:56.209Z,74.40
2019-01-17T04:51:23.599Z,75.40
2019-01-17T04:53:51.019Z,75.20
2019-01-17T04:56:18.495Z,75.10
2019-01-17T04:58:45.873Z,76.00
2019-01-17T05:01:13.187Z,75.80
2019-01-17T05:03:40.896Z,76.50
2019-01-17T05:06:08.282Z,75.80
2019-01-17T05:08:35.661Z,75.70
2019-01-17T05:11:03.112Z,76.10
2019-01-17T05:13:31.108Z,75.00
2019-01-17T05:15:58.468Z,75.80
2019-01-17T05:18:25.889Z,75.10
2019-01-17T05:20:53.363Z,75.70
2019-01-17T05:23:20.763Z,75.30
2019-01-17T05:25:48.108Z,74.00
2019-01-17T05:28:15.551Z,74.70
2019-01-17T05:30:42.970Z,76.40
2019-01-17T05:33:10.385Z,75.00
2019-01-17T05:35:37.859Z,75.50
2019-01-17T05:38:05.361Z,76.10
2019-01-17T05:40:32.694Z,75.50
2019-01-17T05:43:00.138Z,76.70
2019-01-17T05:45:27.533Z,76.10
2019-01-17T05:47:54.966Z,76.30
2019-01-17T05:50:22.387Z,77.40
2019-01-17T05:52:49.808Z,76.90
2019-01-17T05:55:20.005Z,76.80
2019-01-17T05:57:46.426Z,77.00
2019-01-17T06:00:16.250Z,76.40
2019-01-17T06:02:43.697Z,76.10
2019-01-17T06:05:11.359Z,76.70
2019-01-17T06:07:38.763Z,75.70
2019-01-17T06:10:07.782Z,76.10
2019-01-17T06:12:35.142Z,75.80
2019-01-17T06:15:02.448Z,76.20
2019-01-17T06:17:29.861Z,75.70
2019-01-17T06:19:57.171Z,75.40
2019-01-17T06:22:24.602Z,73.60
2019-01-17T06:24:51.901Z,75.10
2019-01-17T06:27:19.262Z,75.70
2019-01-17T06:29:46.650Z,73.20
2019-01-17T06:32:14.004Z,75.50
2019-01-17T06:34:41.283Z,73.50
2019-01-17T06:37:08.591Z,76.40
2019-01-17T06:39:36.020Z,73.80
2019-01-17T06:42:03.739Z,74.30
2019-01-17T06:44:31.154Z,73.90
2019-01-17T06:46:58.588Z,74.70
2019-01-17T06:49:26.049Z,74.20
2019-01-17T06:51:53.464Z,73.30
2019-01-17T06:54:20.868Z,74.30
2019-01-17T06:56:48.189Z,73.00
2019-01-17T06:59:15.474Z,74.30
2019-01-17T07:01:42.992Z,75.10
2019-01-17T07:04:10.432Z,74.90
2019-01-17T07:06:37.863Z,73.60
2019-01-17T07:09:07.459Z,73.20
2019-01-17T07:11:34.848Z,74.30
2019-01-17T07:14:02.515Z,72.70
2019-01-17T07:16:30.227Z,74.80
2019-01-17T07:18:57.607Z,73.40
2019-01-17T07:21:25.289Z,73.80
2019-01-17T07:23:52.670Z,75.20
2019-01-17T07:26:20.101Z,74.70
2019-01-17T07:28:47.531Z,74.00
2019-01-17T07:31:14.950Z,73.60
2019-01-17T07:33:42.352Z,74.00
2019-01-17T07:36:09.682Z,72.60
2019-01-17T07:38:38.360Z,73.80
2019-01-17T07:41:05.805Z,73.30
2019-01-17T07:43:33.249Z,74.00
2019-01-17T07:46:00.558Z,74.10
2019-01-17T07:48:27.945Z,74.70
2019-01-17T07:50:55.279Z,74.50
2019-01-17T07:53:22.688Z,74.10
2019-01-17T07:55:50.387Z,74.70
2019-01-17T07:58:17.848Z,73.80
2019-01-17T08:00:45.229Z,75.10
2019-01-17T08:03:12.670Z,75.70
2019-01-17T08:05:40.063Z,75.90
2019-01-17T08:08:07.402Z,75.90
2019-01-17T08:10:34.809Z,77.60
2019-01-17T08:13:02.436Z,76.80
2019-01-17T08:15:29.869Z,75.70
2019-01-17T08:17:57.188Z,75.90
2019-01-17T08:20:24.637Z,76.90
2019-01-17T08:22:52.389Z,77.50
2019-01-17T08:25:19.787Z,79.00
2019-01-17T08:27:47.305Z,76.80
2019-01-17T08:30:17.059Z,76.90
2019-01-17T08:32:44.468Z,78.10
2019-01-17T08:35:12.229Z,78.60
2019-01-17T08:37:39.546Z,77.60
2019-01-17T08:40:12.600Z,78.10
2019-01-17T08:42:39.924Z,75.90
2019-01-17T08:45:07.649Z,77.00
2019-01-17T08:47:34.979Z,76.30
2019-01-17T08:50:03.679Z,77.40
2019-01-17T08:52:31.089Z,76.80
2019-01-17T08:54:58.952Z,77.00
2019-01-17T08:57:26.363Z,78.90
2019-01-17T08:59:53.799Z,80.10
2019-01-17T09:02:21.194Z,79.00
2019-01-17T09:04:48.618Z,78.20
2019-01-17T09:07:15.965Z,77.70
2019-01-17T09:09:43.490Z,77.40
2019-01-17T09:12:10.774Z,77.00
2019-01-17T09:14:38.301Z,78.30
2019-01-17T09:17:05.725Z,78.40
2019-01-17T09:19:33.135Z,78.80
2019-01-17T09:22:00.580Z,77.80
2019-01-17T09:24:27.998Z,78.40
2019-01-17T09:26:55.451Z,77.80
2019-01-17T09:29:22.898Z,78.00
2019-01-17T09:31:50.346Z,77.80
2019-01-17T09:34:17.762Z,78.30
2019-01-17T09:36:45.195Z,78.40
2019-01-17T09:39:12.505Z,77.60
2019-01-17T09:41:39.943Z,77.70
2019-01-17T09:44:07.335Z,77.70
2019-01-17T09:46:34.764Z,77.40
2019-01-17T09:49:02.218Z,76.60
2019-01-17T09:51:29.660Z,76.30
2019-01-17T09:53:57.678Z,76.40
2019-01-17T09:56:25.178Z,77.00
2019-01-17T09:58:52.557Z,75.70
2019-01-17T10:01:19.876Z,76.10
2019-01-17T10:03:47.294Z,77.30
2019-01-17T10:06:14.726Z,76.80
2019-01-17T10:08:42.076Z,76.70
2019-01-17T10:11:09.523Z,76.20
2019-01-17T10:13:36.954Z,76.50
2019-01-17T10:16:38.981Z,76.90
2019-01-17T10:19:36.102Z,77.00
2019-01-17T10:22:38.956Z,77.30
2019-01-17T10:25:35.018Z,77.40
2019-01-17T10:28:37.489Z,77.00
2019-01-17T10:31:21.226Z,77.10
2019-01-17T10:34:42.474Z,76.80
2019-01-17T10:38:09.979Z,77.10
2019-01-17T10:41:29.037Z,76.90
2019-01-17T10:44:40.148Z,76.90
2019-01-17T10:47:42.446Z,76.40
2019-01-17T10:50:48.904Z,77.00
2019-01-17T10:53:57.955Z,77.00
2019-01-17T10:56:42.420Z,78.00
2019-01-17T10:59:18.731Z,77.50
2019-01-17T11:02:28.058Z,77.40
2019-01-17T11:05:27.518Z,77.00
2019-01-17T11:08:57.899Z,77.00
2019-01-17T11:11:57.480Z,75.80
2019-01-17T11:15:08.502Z,76.60
2019-01-17T11:18:07.849Z,75.20
2019-01-17T11:21:10.008Z,75.90
2019-01-17T11:24:26.108Z,75.20
2019-01-17T11:27:25.399Z,74.00
2019-01-17T11:30:37.695Z,75.30
2019-01-17T11:33:53.794Z,74.60
2019-01-17T11:37:09.792Z,75.30
2019-01-17T11:40:24.891Z,75.30
2019-01-17T11:43:25.293Z,76.00
2019-01-17T11:46:03.798Z,77.30
2019-01-17T11:48:55.137Z,78.00
2019-01-17T11:51:49.401Z,77.80
2019-01-17T11:54:46.726Z,78.20
2019-01-17T11:57:51.048Z,78.10
2019-01-17T12:00:33.236Z,78.90
2019-01-17T12:03:33.744Z,78.60
2019-01-17T12:06:01.403Z,78.80
2019-01-17T12:08:29.709Z,79.50
2019-01-17T12:10:57.629Z,79.50
2019-01-17T12:13:25.310Z,79.90
2019-01-17T12:15:54.701Z,79.50
2019-01-17T12:18:22.925Z,79.50
2019-01-17T12:20:50.890Z,79.00
2019-01-17T12:23:18.578Z,80.30
2019-01-17T12:25:46.104Z,81.90
2019-01-17T12:28:13.640Z,83.40
2019-01-17T12:30:41.866Z,82.50
2019-01-17T12:33:09.355Z,83.40
2019-01-17T12:35:36.755Z,82.30
2019-01-17T12:38:04.149Z,82.30
2019-01-17T12:40:31.779Z,79.40
2019-01-17T12:42:59.238Z,80.70
2019-01-17T12:45:27.823Z,79.30
2019-01-17T12:47:55.176Z,79.60
2019-01-17T12:50:22.598Z,78.70
2019-01-17T12:52:50.525Z,78.30
2019-01-17T12:55:17.955Z,78.80
2019-01-17T12:57:45.385Z,78.10
2019-01-17T13:00:15.902Z,77.50
2019-01-17T13:02:43.235Z,78.20
2019-01-17T13:05:13.669Z,78.30
2019-01-17T13:07:40.979Z,79.40
2019-01-17T13:10:09.675Z,79.90
2019-01-17T13:12:39.754Z,79.30
2019-01-17T13:15:09.842Z,79.90
2019-01-17T13:17:37.642Z,79.90
2019-01-17T13:20:06.073Z,80.50
2019-01-17T13:22:33.573Z,80.50
2019-01-17T13:25:00.969Z,80.40
2019-01-17T13:27:29.621Z,79.20
2019-01-17T13:29:57.009Z,79.10
2019-01-17T13:32:24.356Z,78.60
2019-01-17T13:34:51.722Z,77.70
2019-01-17T13:37:19.484Z,77.60
2019-01-17T13:39:46.904Z,77.50
2019-01-17T13:42:20.764Z,77.20
2019-01-17T13:44:45.306Z,76.70
2019-01-17T13:47:12.760Z,77.50
2019-01-17T13:49:40.175Z,77.70
2019-01-17T13:52:07.635Z,77.00
2019-01-17T13:54:35.064Z,76.30
2019-01-17T13:57:07.519Z,77.30
2019-01-17T13:59:31.808Z,77.90
2019-01-17T14:01:59.459Z,78.00
2019-01-17T14:04:26.958Z,77.70
2019-01-17T14:06:54.426Z,78.30
2019-01-17T14:09:21.775Z,78.30
2019-01-17T14:11:49.260Z,77.80
2019-01-17T14:14:17.142Z,77.80
2019-01-17T14:16:44.556Z,77.20
2019-01-17T14:19:12.012Z,77.20
2019-01-17T14:21:39.448Z,76.60
2019-01-17T14:24:06.774Z,75.80
2019-01-17T14:26:34.267Z,75.30
2019-01-17T14:29:01.724Z,76.20
2019-01-17T14:31:29.075Z,75.60
2019-01-17T14:33:56.431Z,75.90
2019-01-17T14:36:23.732Z,75.40
2019-01-17T14:38:51.100Z,76.20
2019-01-17T14:41:18.424Z,76.10
2019-01-17T14:43:45.812Z,75.50
2019-01-17T14:46:13.210Z,76.40
2019-01-17T14:48:40.671Z,76.40
2019-01-17T14:51:08.078Z,74.90
2019-01-17T14:53:35.526Z,74.60
2019-01-17T14:56:03.035Z,74.60
2019-01-17T14:58:30.457Z,75.00
2019-01-17T15:00:57.927Z,75.20
2019-01-17T15:03:25.387Z,75.10
2019-01-17T15:05:54.675Z,74.70
2019-01-17T15:08:22.130Z,75.80
2019-01-17T15:10:49.517Z,75.70
2019-01-17T15:13:17.252Z,76.00
2019-01-17T15:15:44.713Z,76.40
2019-01-17T15:18:12.123Z,77.50
2019-01-17T15:20:39.663Z,78.30
2019-01-17T15:23:08.678Z,77.40
2019-01-17T15:25:36.059Z,77.60
2019-01-17T15:28:03.489Z,77.80
2019-01-17T15:30:31.200Z,78.40
2019-01-17T15:32:58.554Z,78.50
2019-01-17T15:35:25.957Z,76.40
2019-01-17T15:37:53.699Z,76.30
2019-01-17T15:40:23.429Z,75.90
2019-01-17T15:42:50.913Z,77.50
2019-01-17T15:45:18.315Z,78.00
2019-01-17T15:47:46.014Z,78.50
2019-01-17T15:50:13.791Z,76.80
2019-01-17T15:52:41.141Z,76.80
2019-01-17T15:55:10.053Z,76.00
2019-01-17T15:57:37.413Z,75.30
2019-01-17T16:00:07.657Z,74.90
2019-01-17T16:02:35.033Z,75.40
2019-01-17T16:05:02.816Z,74.70
2019-01-17T16:07:30.162Z,74.40
2019-01-17T16:09:59.359Z,75.10
2019-01-17T16:12:26.842Z,75.80
2019-01-17T16:14:54.295Z,75.80
2019-01-17T16:17:21.893Z,75.90
2019-01-17T16:19:49.311Z,75.60
2019-01-17T16:22:16.800Z,75.40
2019-01-17T16:24:44.213Z,75.40
2019-01-17T16:27:11.691Z,75.70
2019-01-17T16:29:39.095Z,75.80
2019-01-17T16:32:06.550Z,74.60
2019-01-17T16:34:34.007Z,74.70
2019-01-17T16:37:01.362Z,75.60
2019-01-17T16:39:28.756Z,75.10
2019-01-17T16:41:56.261Z,75.90
2019-01-17T16:44:23.742Z,75.70
2019-01-17T16:46:51.242Z,75.80
2019-01-17T16:49:18.660Z,75.40
2019-01-17T16:51:46.207Z,75.70
2019-01-17T16:54:13.903Z,76.30
2019-01-17T16:56:41.352Z,76.10
2019-01-17T16:59:08.744Z,75.60
2019-01-17T17:01:36.215Z,75.90
2019-01-17T17:04:03.747Z,74.90
2019-01-17T17:06:31.269Z,74.70
2019-01-17T17:08:58.748Z,75.80
2019-01-17T17:11:26.208Z,75.20
2019-01-17T17:13:53.563Z,75.10
2019-01-17T17:16:21.073Z,74.20
2019-01-17T17:18:48.423Z,74.90
2019-01-17T17:21:15.754Z,73.40
2019-01-17T17:23:43.138Z,74.00
2019-01-17T17:26:10.628Z,74.50
2019-01-17T17:28:38.499Z,75.70
2019-01-17T17:31:05.997Z,75.50
2019-01-17T17:33:33.486Z,75.50
2019-01-17T17:36:01.277Z,75.30
2019-01-17T17:38:28.771Z,75.90
2019-01-17T17:40:56.185Z,75.80
2019-01-17T17:43:23.677Z,75.80
2019-01-17T17:45:51.429Z,76.00
2019-01-17T17:48:18.917Z,74.90
2019-01-17T17:50:46.377Z,75.30
2019-01-17T17:53:14.221Z,76.10
2019-01-17T17:55:41.669Z,75.50
2019-01-17T17:58:09.186Z,76.70
2019-01-17T18:00:56.409Z,76.30
2019-01-17T18:03:23.818Z,75.80
2019-01-17T18:05:51.254Z,76.90
2019-01-17T18:08:18.762Z,76.40
2019-01-17T18:10:46.275Z,77.40
2019-01-17T18:13:13.740Z,77.40
2019-01-17T18:15:41.718Z,78.40
2019-01-17T18:18:10.706Z,78.80
2019-01-17T18:20:38.288Z,79.20
2019-01-17T18:23:05.707Z,77.20
2019-01-17T18:25:33.150Z,76.40
2019-01-17T18:28:00.491Z,75.90
2019-01-17T18:30:27.950Z,77.70
2019-01-17T18:32:55.482Z,76.90
2019-01-17T18:35:23.104Z,77.30
2019-01-17T18:37:50.606Z,78.70
2019-01-17T18:40:18.169Z,77.30
2019-01-17T18:42:46.112Z,77.50
2019-01-17T18:45:16.166Z,76.90
2019-01-17T18:47:44.035Z,77.00
2019-01-17T18:50:16.628Z,77.40
2019-01-17T18:52:44.125Z,76.20
2019-01-17T18:55:11.766Z,77.00
2019-01-17T18:57:39.240Z,76.90
2019-01-17T19:00:23.551Z,76.80
2019-01-17T19:02:51.686Z,76.70
2019-01-17T19:05:20.521Z,77.00
2019-01-17T19:07:48.894Z,76.20
2019-01-17T19:10:18.807Z,75.00
2019-01-17T19:12:47.214Z,74.80
2019-01-17T19:15:21.404Z,75.10
2019-01-17T19:17:49.717Z,75.70
2019-01-17T19:20:18.161Z,74.30
2019-01-17T19:22:46.249Z,72.90
2019-01-17T19:25:14.226Z,73.50
2019-01-17T19:27:42.855Z,74.90
2019-01-17T19:30:14.546Z,76.00
2019-01-17T19:32:42.714Z,77.50
2019-01-17T19:35:10.842Z,76.00
2019-01-17T19:37:38.473Z,76.70
2019-01-17T19:40:08.175Z,74.70
2019-01-17T19:42:36.579Z,75.50
2019-01-17T19:45:05.491Z,75.90
2019-01-17T19:47:32.977Z,78.10
2019-01-17T19:50:00.485Z,77.00
2019-01-17T19:52:27.948Z,75.30
2019-01-17T19:54:55.420Z,75.30
2019-01-17T19:57:22.844Z,77.20
2019-01-17T19:59:50.852Z,76.70
2019-01-17T20:02:18.858Z,77.50
2019-01-17T20:04:46.508Z,78.10
2019-01-17T20:07:13.978Z,80.30
2019-01-17T20:09:41.517Z,80.50
2019-01-17T20:12:09.429Z,80.10
2019-01-17T20:14:39.176Z,79.90
2019-01-17T20:17:06.790Z,80.30
2019-01-17T20:19:34.307Z,79.60
2019-01-17T20:22:01.811Z,79.60
2019-01-17T20:24:30.335Z,78.10
2019-01-17T20:26:57.918Z,78.20
2019-01-17T20:29:25.507Z,77.90
2019-01-17T20:31:53.100Z,78.90
2019-01-17T20:34:20.666Z,80.00
2019-01-17T20:36:48.264Z,78.60
2019-01-17T20:39:15.793Z,77.00
2019-01-17T20:41:43.694Z,79.00
2019-01-17T20:44:11.140Z,79.20
2019-01-17T20:46:39.179Z,79.40
2019-01-17T20:49:06.720Z,80.80
2019-01-17T20:51:34.250Z,81.10
2019-01-17T20:54:01.923Z,78.40
2019-01-17T20:56:29.430Z,79.20
2019-01-17T20:58:57.261Z,79.70
2019-01-17T21:01:58.781Z,78.50
2019-01-17T21:04:26.287Z,77.40
2019-01-17T21:06:53.789Z,76.60
2019-01-17T21:09:21.305Z,78.20
2019-01-17T21:11:48.827Z,79.10
2019-01-17T21:14:16.335Z,79.50
2019-01-17T21:16:43.842Z,78.20
2019-01-17T21:19:11.660Z,77.60
2019-01-17T21:21:39.200Z,77.10
2019-01-17T21:24:07.761Z,76.80
2019-01-17T21:26:35.583Z,75.70
2019-01-17T21:29:03.094Z,76.50
2019-01-17T21:31:30.602Z,77.10
2019-01-17T21:33:58.119Z,76.60
2019-01-17T21:36:25.613Z,75.10
2019-01-17T21:38:53.144Z,74.40
2019-01-17T21:41:20.611Z,74.30
2019-01-17T21:43:48.060Z,73.90
2019-01-17T21:46:15.520Z,74.50
2019-01-17T21:48:42.992Z,74.40
2019-01-17T21:51:10.480Z,73.60
2019-01-17T21:53:37.946Z,73.60
2019-01-17T21:56:05.383Z,73.80
2019-01-17T21:58:32.855Z,73.50
2019-01-17T22:01:00.328Z,73.70
2019-01-17T22:03:27.779Z,73.70
2019-01-17T22:05:55.252Z,72.70
2019-01-17T22:08:22.683Z,74.00
2019-01-17T22:10:50.193Z,73.60
2019-01-17T22:13:17.675Z,73.30
2019-01-17T22:15:45.100Z,73.20
2019-01-17T22:18:12.476Z,73.00
2019-01-17T22:20:39.904Z,72.90
2019-01-17T22:23:07.220Z,72.60
2019-01-17T22:25:34.572Z,72.40
2019-01-17T22:28:02.371Z,72.20
2019-01-17T22:30:29.812Z,71.80
2019-01-17T22:32:57.693Z,72.60
2019-01-17T22:35:25.210Z,72.10
2019-01-17T22:37:52.625Z,73.90
2019-01-17T22:40:20.110Z,72.80
2019-01-17T22:42:47.539Z,72.70
2019-01-17T22:45:20.318Z,73.40
2019-01-17T22:47:47.725Z,74.30
2019-01-17T22:50:15.722Z,73.00
2019-01-17T22:52:43.092Z,73.90
2019-01-17T22:55:10.566Z,73.40
2019-01-17T22:57:37.997Z,73.10
2019-01-17T23:00:25.915Z,72.70
2019-01-17T23:02:53.242Z,75.60
2019-01-17T23:05:20.680Z,75.50
2019-01-17T23:07:48.149Z,76.10
2019-01-17T23:10:15.583Z,75.70
2019-01-17T23:12:43.004Z,74.40
2019-01-17T23:15:30.115Z,76.40
2019-01-17T23:17:57.529Z,76.40
2019-01-17T23:20:24.810Z,77.10
2019-01-17T23:22:52.452Z,77.10
2019-01-17T23:25:19.770Z,78.00
2019-01-17T23:27:47.182Z,74.80
2019-01-17T23:30:15.664Z,74.00
2019-01-17T23:32:43.170Z,75.70
2019-01-17T23:35:10.822Z,76.30
2019-01-17T23:37:38.258Z,76.80
2019-01-17T23:40:05.656Z,77.80
2019-01-17T23:42:32.977Z,78.30
2019-01-17T23:45:00.372Z,76.30
2019-01-17T23:47:27.643Z,76.10
2019-01-17T23:49:54.919Z,77.80
2019-01-17T23:52:22.255Z,76.40
2019-01-17T23:54:49.625Z,74.20
2019-01-17T23:57:16.936Z,76.30
2019-01-17T23:59:44.238Z,74.60
